createdAt,value
2023-03-26T00:02:43.172Z,99133.53
2023-03-26T00:12:46.019Z,99139.81
2023-03-26T00:22:51.765Z,99148.34
2023-03-26T00:32:54.677Z,99151.94
2023-03-26T00:42:58.910Z,99159.94
2023-03-26T00:53:01.775Z,99168.50
2023-03-26T01:03:07.246Z,99176.41
2023-03-26T01:13:10.816Z,99180.56
2023-03-26T01:23:24.173Z,99185.69
2023-03-26T01:33:36.779Z,99192.56
2023-03-26T01:43:46.430Z,99200.00
2023-03-26T01:53:50.975Z,99207.59
2023-03-26T02:04:01.453Z,99211.59
2023-03-26T02:14:07.408Z,99216.03
2023-03-26T02:24:10.332Z,99220.44
2023-03-26T02:34:14.657Z,99224.59
2023-03-26T02:44:17.450Z,99230.91
2023-03-26T02:54:21.658Z,99238.44
2023-03-26T03:04:25.122Z,99245.53
2023-03-26T03:14:29.503Z,99248.84
2023-03-26T03:24:34.243Z,99254.91
2023-03-26T03:34:38.858Z,99261.94
2023-03-26T03:44:41.900Z,99267.59
2023-03-26T03:54:46.901Z,99265.84
2023-03-26T04:04:50.525Z,99267.91
2023-03-26T04:14:55.355Z,99268.03
2023-03-26T04:25:01.664Z,99272.75
2023-03-26T04:35:07.139Z,99274.13
2023-03-26T04:45:18.073Z,99274.81
2023-03-26T04:55:29.673Z,99275.63
2023-03-26T05:16:16.514Z,99271.78
2023-03-26T05:26:20.948Z,99270.28
2023-03-26T05:36:26.383Z,99268.53
2023-03-26T05:46:29.614Z,99272.06
2023-03-26T05:56:34.232Z,99276.66
2023-03-26T06:06:37.597Z,99279.66
2023-03-26T06:16:54.580Z,99281.44
2023-03-26T06:26:57.790Z,99272.84
2023-03-26T06:37:02.272Z,99272.50
2023-03-26T06:47:05.263Z,99268.91
2023-03-26T06:57:09.820Z,99269.97
2023-03-26T07:07:13.771Z,99269.41
2023-03-26T07:17:18.153Z,99255.84
2023-03-26T07:27:35.669Z,99255.81
2023-03-26T07:37:50.701Z,99258.06
2023-03-26T07:47:54.076Z,99260.25
2023-03-26T07:58:16.785Z,99261.72
2023-03-26T08:08:27.380Z,99262.53
2023-03-26T08:18:45.046Z,99259.06
2023-03-26T08:28:59.212Z,99258.84
2023-03-26T08:39:04.288Z,99257.31
2023-03-26T08:49:33.881Z,99256.38
2023-03-26T09:00:15.769Z,99254.94
2023-03-26T09:10:51.287Z,99253.56
2023-03-26T09:21:39.603Z,99252.00
2023-03-26T09:32:17.820Z,99250.56
2023-03-26T09:42:30.166Z,99248.66
2023-03-26T09:53:08.280Z,99247.03
2023-03-26T10:03:27.018Z,99244.75
2023-03-26T10:13:41.359Z,99240.38
2023-03-26T10:24:01.702Z,99236.78
2023-03-26T10:34:28.465Z,99232.59
2023-03-26T10:44:57.760Z,99228.41
2023-03-26T10:55:09.862Z,99222.31
2023-03-26T11:05:34.614Z,99217.44
2023-03-26T11:15:41.954Z,99213.19
2023-03-26T11:25:59.129Z,99209.25
2023-03-26T11:36:06.296Z,99202.41
2023-03-26T11:46:13.681Z,99198.19
2023-03-26T11:56:27.291Z,99189.16
2023-03-26T12:06:33.371Z,99183.44
2023-03-26T12:16:40.625Z,99174.78
2023-03-26T12:26:46.845Z,99170.25
2023-03-26T12:36:55.809Z,99155.75
2023-03-26T12:47:57.721Z,99150.28
2023-03-26T12:57:53.405Z,99145.66
2023-03-26T13:08:16.308Z,99140.16
2023-03-26T13:18:32.715Z,99131.09
2023-03-26T13:28:45.688Z,99118.41
2023-03-26T13:39:03.615Z,99112.47
2023-03-26T13:49:17.111Z,99102.38
2023-03-26T13:59:29.719Z,99096.69
2023-03-26T14:09:41.306Z,99090.31
2023-03-26T14:20:25.570Z,99084.22
2023-03-26T14:30:48.508Z,99076.59
2023-03-26T14:41:02.263Z,99070.13
2023-03-26T14:51:23.641Z,99062.50
2023-03-26T15:01:28.476Z,99053.72
2023-03-26T15:11:42.200Z,99043.94
2023-03-26T15:22:15.324Z,99037.75
2023-03-26T15:32:57.387Z,99031.97
2023-03-26T15:43:11.174Z,99021.06
2023-03-26T15:53:26.494Z,99015.63
2023-03-26T16:03:48.329Z,99009.63
2023-03-26T16:14:13.742Z,99002.63
2023-03-26T16:24:25.348Z,98996.75
2023-03-26T16:34:38.918Z,98989.91
2023-03-26T16:44:53.239Z,98983.28
2023-03-26T16:55:14.027Z,98973.81
2023-03-26T17:05:26.326Z,98967.88
2023-03-26T17:15:36.994Z,98964.28
2023-03-26T17:25:54.677Z,98960.63
2023-03-26T17:36:29.023Z,98956.28
2023-03-26T17:46:38.212Z,98949.31
2023-03-26T17:56:44.119Z,98945.53
2023-03-26T18:07:28.406Z,98941.88
2023-03-26T18:30:09.298Z,98924.53
2023-03-26T18:40:13.055Z,98920.91
2023-03-26T19:01:37.888Z,98913.84
2023-03-26T19:11:49.895Z,98910.50
2023-03-26T19:21:59.063Z,98906.84
2023-03-26T19:32:19.063Z,98900.28
2023-03-26T19:42:26.971Z,98900.38
2023-03-26T19:53:15.319Z,98900.25
2023-03-26T20:03:28.990Z,98882.28
2023-03-26T20:13:32.475Z,98883.03
2023-03-26T20:23:39.630Z,98883.09
2023-03-26T20:33:44.409Z,98883.44
2023-03-26T20:43:49.077Z,98881.56
2023-03-26T20:53:52.376Z,98879.59
2023-03-26T21:03:57.943Z,98871.88
2023-03-26T21:14:08.435Z,98865.50
2023-03-26T21:24:22.992Z,98864.44
2023-03-26T21:34:27.612Z,98864.75
2023-03-26T21:44:33.353Z,98855.81
2023-03-26T21:54:38.357Z,98848.22
2023-03-26T22:04:50.001Z,98842.53
2023-03-26T22:14:53.069Z,98837.50
2023-03-26T22:24:57.670Z,98836.06
2023-03-26T22:35:01.085Z,98830.88
2023-03-26T22:45:07.256Z,98817.22
2023-03-26T22:55:11.776Z,98809.03
2023-03-26T23:05:19.047Z,98805.94
2023-03-26T23:15:22.368Z,98799.59
2023-03-26T23:25:28.739Z,98796.72
2023-03-26T23:35:32.353Z,98792.22
2023-03-26T23:45:37.761Z,98786.97
2023-03-26T23:55:41.446Z,98782.41
